Hibbing, MN

4:45 AM CDT on September 01, 2015 (GMT -0500)
Chisholm-hibbing | | Change Station
CLOSE
Current Station
Airport
Location: Hibbing,
Elevation: 1352 ft
Nearby Weather Stations

Elev 1352 ft 47.39 °N, 92.84 °W | Updated 39 minutes ago

Fog
Fog
62 °F
Feels Like 62 °F
N
0
Wind Variable Wind from North

Today
High -- | Low -- °F
--% Chance of Precip.
Yesterday
High -- | Low -- °F
Precip. -- in
6:30 AM 7:52 PM
Waning Gibbous, 90% visible
Pressure 29.89 in
Visibility 0.5 miles
Clouds
Dew Point 61 °F
Humidity 96%
Rainfall 0.00 in
Snow Depth Not available.
UV Not available.
Pollen 10.10 out of 12
Air Quality Not available.
Flu Activity Not available.
SPECI KHIB 010906Z AUTO 00000KT 1/2SM FG VV001 17/16 A2989 RMK AO2 T01670161
Pressure 29.89 in
Visibility 0.5 miles
Clouds
Dew Point 61 °F
Humidity 96%
Rainfall 0.00 in
Snow Depth Not available.
UV Not available.
Pollen 10.10 out of 12
Air Quality Not available.
Flu Activity Not available.
SPECI KHIB 010906Z AUTO 00000KT 1/2SM FG VV001 17/16 A2989 RMK AO2 T01670161

10-Day Weather Forecast

×

Almanac

Astronomy

Sep. 01, 2015 Rise Set
Actual Time
Civil Twilight
Nautical Twilight
Astronomical Twilight
Moon
Length of Visible Light
Length of Day
Tomorrow will be .
, % of the Moon is Illuminated

Today's Extremes

State Highs State Lows

Community

WunderPhotos

Upload Photos

1,851,499 photos uploaded!

WunderBlogs® & News

Nearby

Air Quality

  Air Quality AQ Index Pollutant
Not available.

Snow Depth

Station Depth Elevation

Earthquake Activity

City Distance Mag. Time & Date
Minimum magnitude displayed is 2.5.

Coastal Water Temperatures

Place Temperature

Stations

Nearby Weather Stations

Station Location Temp. Windchill Dew Point Humidity Wind Precip. Elev Updated Type